Time;durP1;ratioP1;P1;durP2;ratioP2;P2;SDS_P1;SDS_P2;PMS_P1;PMS_P2;Temp;Humidity;BMP_temperature;BMP_pressure;BME280_temperature;BME280_humidity;BME280_pressure;Samples;Min_cycle;Max_cycle;Signal;HPM_P1;HPM_P2
2022/12/03 00:00:08;;;;;;;28.10;9.57;;;;;;;3.09;100.00;101339.63;6101898;23;20014;-94
2022/12/03 00:02:33;;;;;;;18.65;8.82;;;;;;;3.08;100.00;101335.41;6101863;23;19998;-95
2022/12/03 00:04:59;;;;;;;16.75;7.88;;;;;;;3.21;100.00;101349.69;6102001;23;20013;-94
2022/12/03 00:07:24;;;;;;;19.73;8.02;;;;;;;3.24;100.00;101351.34;6101464;23;20079;-95
2022/12/03 00:09:50;;;;;;;22.52;8.65;;;;;;;3.39;100.00;101341.81;6101666;23;20013;-94
2022/12/03 00:12:15;;;;;;;19.48;8.68;;;;;;;3.13;100.00;101333.66;6101737;23;20495;-94
2022/12/03 00:14:41;;;;;;;21.33;9.10;;;;;;;3.31;100.00;101358.06;6102173;23;20050;-94
2022/12/03 00:17:06;;;;;;;20.83;8.55;;;;;;;3.34;100.00;101358.91;6102018;23;20302;-94
2022/12/03 00:19:32;;;;;;;23.98;9.32;;;;;;;3.37;100.00;101379.25;6097203;23;20038;-93
2022/12/03 00:21:57;;;;;;;21.70;9.05;;;;;;;3.52;100.00;101367.16;6096710;23;20052;-94
2022/12/03 00:24:23;;;;;;;24.95;9.60;;;;;;;3.34;100.00;101353.78;6096518;23;20418;-95
2022/12/03 00:26:48;;;;;;;26.13;8.52;;;;;;;3.39;100.00;101346.91;6096636;23;20038;-93
2022/12/03 00:29:14;;;;;;;18.45;8.50;;;;;;;3.45;100.00;101358.75;6097036;23;20011;-94
2022/12/03 00:31:40;;;;;;;20.13;8.00;;;;;;;3.51;100.00;101357.81;6096251;23;20010;-95
2022/12/03 00:34:06;;;;;;;21.63;8.63;;;;;;;3.48;100.00;101350.19;6096136;23;20003;-94
2022/12/03 00:36:31;;;;;;;20.70;8.77;;;;;;;3.46;100.00;101347.66;6096005;23;20009;-95
2022/12/03 00:38:57;;;;;;;18.83;8.52;;;;;;;3.46;100.00;101344.28;6095538;23;20018;-95
2022/12/03 00:41:22;;;;;;;20.85;8.93;;;;;;;3.43;100.00;101350.25;6096604;23;20006;-95
2022/12/03 00:43:48;;;;;;;18.33;9.30;;;;;;;3.34;100.00;101338.47;6097142;23;20078;-96
2022/12/03 00:46:13;;;;;;;20.20;8.45;;;;;;;3.54;100.00;101350.97;6098263;23;20453;-96
2022/12/03 00:48:39;;;;;;;18.02;8.85;;;;;;;3.38;100.00;101350.31;6097663;23;20690;-95
2022/12/03 00:51:05;;;;;;;17.58;8.13;;;;;;;3.41;100.00;101337.53;6097761;23;20014;-95
2022/12/03 00:53:30;;;;;;;17.40;7.63;;;;;;;3.64;100.00;101367.00;6097184;23;20033;-95
2022/12/03 00:55:56;;;;;;;19.67;8.07;;;;;;;3.38;100.00;101347.75;6097292;23;20018;-95
2022/12/03 00:58:21;;;;;;;18.60;8.65;;;;;;;3.40;100.00;101351.16;6096499;23;20006;-95
2022/12/03 01:00:47;;;;;;;15.93;8.52;;;;;;;3.39;100.00;101335.84;6096392;23;20033;-94
2022/12/03 01:03:12;;;;;;;20.65;8.82;;;;;;;3.45;100.00;101329.84;6096396;23;20012;-95
2022/12/03 01:05:38;;;;;;;16.25;8.88;;;;;;;3.38;100.00;101332.44;6096527;23;20002;-95
2022/12/03 01:08:03;;;;;;;18.23;7.85;;;;;;;3.43;100.00;101351.09;6096460;23;20006;-94
2022/12/03 01:10:29;;;;;;;23.13;10.80;;;;;;;3.36;100.00;101335.88;6096503;23;20013;-94
2022/12/03 01:12:54;;;;;;;18.15;8.88;;;;;;;3.25;100.00;101330.09;6096852;23;20342;-94
2022/12/03 01:15:20;;;;;;;18.23;8.73;;;;;;;3.40;100.00;101340.09;6095949;23;20013;-95
2022/12/03 01:17:45;;;;;;;17.65;9.20;;;;;;;3.54;100.00;101350.97;6095969;23;20002;-93
2022/12/03 01:20:11;;;;;;;18.80;9.73;;;;;;;3.43;100.00;101338.34;6095950;23;20010;-95
2022/12/03 01:22:37;;;;;;;21.23;9.43;;;;;;;3.51;100.00;101330.59;6095156;23;20382;-95
2022/12/03 01:25:03;;;;;;;22.77;9.75;;;;;;;3.34;100.00;101328.28;6095390;23;20030;-94
2022/12/03 01:27:28;;;;;;;14.52;8.25;;;;;;;3.32;100.00;101318.97;6096065;23;20057;-94
2022/12/03 01:29:54;;;;;;;19.42;8.52;;;;;;;3.35;100.00;101324.84;6095824;23;20006;-94
2022/12/03 01:32:19;;;;;;;23.00;9.02;;;;;;;3.42;100.00;101336.66;6094905;23;20127;-94
2022/12/03 01:34:48;;;;;;;17.33;8.98;;;;;;;3.37;100.00;101340.16;6094861;23;20002;-94
2022/12/03 01:37:14;;;;;;;19.63;8.85;;;;;;;3.27;100.00;101316.47;6096200;23;20040;-94
2022/12/03 01:39:40;;;;;;;21.98;9.80;;;;;;;3.46;100.00;101346.81;6096644;23;20459;-94
2022/12/03 01:42:07;;;;;;;29.13;9.13;;;;;;;3.41;100.00;101345.19;6096510;23;20089;-94
2022/12/03 05:13:54;;;;;;;20.60;8.65;;;;;;;3.49;93.16;101265.97;6131179;23;20017;-96
2022/12/03 05:16:20;;;;;;;15.43;7.72;;;;;;;3.56;93.73;101271.81;6107046;23;20052;-96
2022/12/03 05:18:54;;;;;;;20.45;8.00;;;;;;;3.04;95.96;101224.09;6110503;23;19998;-95
2022/12/03 05:21:20;;;;;;;18.42;8.25;;;;;;;2.99;98.04;101234.34;6136199;23;20041;-96
2022/12/03 05:23:46;;;;;;;19.52;8.63;;;;;;;2.92;97.24;101233.56;6133982;23;20006;-96
2022/12/03 05:26:12;;;;;;;20.23;7.40;;;;;;;2.96;95.75;101225.03;6108454;23;20018;-96
2022/12/03 05:28:37;;;;;;;19.08;8.15;;;;;;;2.91;96.42;101226.81;6132270;23;20002;-94
2022/12/03 05:31:03;;;;;;;16.98;7.63;;;;;;;3.08;95.85;101223.19;6106625;23;20009;-96
2022/12/03 05:33:29;;;;;;;17.20;8.43;;;;;;;3.09;96.64;101230.78;6107020;23;20070;-96
2022/12/03 05:35:55;;;;;;;18.30;7.72;;;;;;;3.05;97.80;101231.72;6107582;23;20006;-96
2022/12/03 05:38:21;;;;;;;17.98;8.65;;;;;;;3.20;98.49;101217.91;6107077;23;20073;-95
2022/12/03 05:40:46;;;;;;;20.92;10.00;;;;;;;3.24;98.56;101237.38;6105832;23;20009;-96
2022/12/03 05:43:12;;;;;;;17.33;8.68;;;;;;;3.13;98.16;101221.41;6106311;23;20072;-95
2022/12/03 05:45:40;;;;;;;16.88;8.35;;;;;;;3.27;98.76;101239.06;6105317;23;20006;-94
2022/12/03 05:48:09;;;;;;;23.10;8.98;;;;;;;3.23;99.19;101233.16;6105320;23;20093;-95
2022/12/03 05:50:37;;;;;;;17.33;8.23;;;;;;;3.17;99.11;101220.47;6106226;23;20185;-96
2022/12/03 05:53:03;;;;;;;19.90;9.27;;;;;;;3.26;98.99;101207.59;6105368;23;20142;-95
2022/12/03 05:55:29;;;;;;;20.55;9.30;;;;;;;3.24;99.76;101205.94;6128709;23;20024;-95
2022/12/03 05:57:55;;;;;;;19.73;8.93;;;;;;;3.28;99.72;101188.03;6104332;23;20019;-95
2022/12/03 06:00:24;;;;;;;22.13;8.77;;;;;;;3.47;98.75;101236.22;6129302;23;20006;-96
2022/12/03 06:02:50;;;;;;;16.88;7.60;;;;;;;3.23;98.99;101200.00;6108390;23;20433;-95
2022/12/03 06:05:18;;;;;;;18.20;7.97;;;;;;;3.46;97.36;101204.75;6106268;23;20008;-96
2022/12/03 06:07:44;;;;;;;16.52;7.28;;;;;;;3.50;96.85;101215.75;6128840;23;20402;-96
2022/12/03 06:10:12;;;;;;;15.10;7.75;;;;;;;3.50;96.07;101210.66;6106093;23;20020;-96
2022/12/03 06:12:38;;;;;;;20.20;8.60;;;;;;;3.49;97.07;101206.41;6107458;23;20013;-95
2022/12/03 06:15:05;;;;;;;17.33;7.72;;;;;;;3.36;99.18;101191.28;6107851;23;20180;-95
2022/12/03 06:17:31;;;;;;;16.67;8.60;;;;;;;3.52;96.71;101191.91;6107029;23;20006;-95
2022/12/03 06:19:56;;;;;;;18.13;8.82;;;;;;;3.47;97.15;101188.59;6131553;23;20341;-95
2022/12/03 06:22:22;;;;;;;24.15;8.45;;;;;;;3.46;97.27;101196.25;6132482;23;20006;-95
2022/12/03 06:24:49;;;;;;;22.52;9.45;;;;;;;3.53;95.93;101202.94;6107925;23;20016;-95
2022/12/03 06:27:14;;;;;;;19.95;7.97;;;;;;;3.67;96.12;101211.22;6106451;23;20006;-96
2022/12/03 06:29:40;;;;;;;19.38;7.72;;;;;;;3.67;94.54;101198.47;6107045;23;20010;-95
2022/12/03 06:32:06;;;;;;;14.60;7.03;;;;;;;3.47;95.07;101190.28;6106235;23;20006;-96
2022/12/03 06:34:31;;;;;;;19.63;8.55;;;;;;;3.59;93.73;101195.19;6106764;23;20073;-94
2022/12/03 06:36:57;;;;;;;14.65;8.23;;;;;;;3.88;93.24;101221.94;6106628;23;20456;-95
2022/12/03 06:39:22;;;;;;;15.93;8.05;;;;;;;3.58;94.16;101193.50;6104887;23;20333;-96
2022/12/03 06:41:48;;;;;;;16.52;6.85;;;;;;;3.74;94.62;101215.38;6106528;23;20013;-95
2022/12/03 06:44:14;;;;;;;15.80;6.00;;;;;;;3.68;89.47;101240.16;6107232;23;20010;-96
2022/12/03 06:46:40;;;;;;;16.73;5.50;;;;;;;3.45;83.23;101192.03;6107426;23;20441;-95
2022/12/03 06:49:07;;;;;;;12.45;5.07;;;;;;;3.52;82.67;101203.81;6106965;23;20008;-95
2022/12/03 06:51:34;;;;;;;10.20;4.88;;;;;;;3.37;83.00;101193.00;6106701;23;20016;-95
2022/12/03 06:54:00;;;;;;;17.67;5.60;;;;;;;3.35;82.59;101197.28;6131857;23;20038;-95
2022/12/03 06:56:26;;;;;;;15.77;5.55;;;;;;;3.29;83.53;101182.06;6107403;23;20238;-95
2022/12/03 06:58:52;;;;;;;11.90;5.85;;;;;;;3.26;84.06;101188.91;6107886;23;20635;-95
2022/12/03 07:01:18;;;;;;;9.98;5.30;;;;;;;3.36;81.80;101187.91;6106483;23;20046;-96
2022/12/03 07:03:43;;;;;;;9.77;4.82;;;;;;;3.28;81.80;101188.03;6130926;23;20005;-95
2022/12/03 07:06:09;;;;;;;16.08;6.78;;;;;;;3.25;82.23;101194.88;6130676;23;20433;-95
2022/12/03 07:08:34;;;;;;;22.25;5.47;;;;;;;3.22;82.65;101193.22;6107802;23;20008;-96
2022/12/03 07:11:00;;;;;;;11.82;5.68;;;;;;;3.38;81.18;101197.22;6108587;23;20014;-95
2022/12/03 07:13:25;;;;;;;14.00;5.30;;;;;;;3.14;81.81;101179.72;6103692;23;20404;-96
2022/12/03 07:15:51;;;;;;;14.63;5.35;;;;;;;3.25;82.68;101193.19;6102351;23;20002;-96
2022/12/03 07:18:17;;;;;;;9.68;4.28;;;;;;;3.13;83.30;101171.25;6127504;23;20008;-95
2022/12/03 07:20:42;;;;;;;9.25;4.70;;;;;;;3.21;81.83;101188.97;6126528;23;20081;-95
2022/12/03 07:23:08;;;;;;;18.00;5.60;;;;;;;3.22;82.36;101208.53;6103067;23;20006;-95
2022/12/03 07:25:33;;;;;;;12.05;4.68;;;;;;;3.16;82.81;101173.72;6103238;23;20009;-95
2022/12/03 07:27:59;;;;;;;10.95;4.28;;;;;;;3.22;82.95;101191.50;6126247;23;20022;-95
2022/12/03 07:30:26;;;;;;;14.63;4.72;;;;;;;3.19;83.49;101188.16;6100790;23;20038;-96
2022/12/03 07:32:52;;;;;;;11.27;4.32;;;;;;;3.17;83.49;101200.06;6100111;23;20006;-96
2022/12/03 07:35:18;;;;;;;13.15;4.60;;;;;;;3.20;83.06;101177.94;6100338;23;20444;-96
2022/12/03 07:37:43;;;;;;;9.35;4.78;;;;;;;3.27;83.99;101206.75;6125567;23;20006;-95
2022/12/03 07:40:10;;;;;;;12.70;5.00;;;;;;;3.16;84.20;101186.50;6101880;23;20378;-95
2022/12/03 07:42:35;;;;;;;15.70;5.60;;;;;;;3.06;85.09;101166.25;6102802;23;20003;-95
2022/12/03 07:45:01;;;;;;;10.05;4.72;;;;;;;3.05;84.48;101173.06;6126698;23;20007;-96
2022/12/03 07:47:27;;;;;;;12.60;5.13;;;;;;;3.15;86.92;101194.19;6128431;23;20448;-94
2022/12/03 07:49:53;;;;;;;10.80;5.20;;;;;;;3.08;84.81;101179.84;6101374;23;20044;-95
2022/12/03 07:52:18;;;;;;;11.77;4.93;;;;;;;3.14;84.91;101166.97;6102480;23;20323;-95
2022/12/03 07:54:44;;;;;;;13.95;4.72;;;;;;;3.23;84.63;101184.69;6102177;23;20014;-95
2022/12/03 07:57:18;;;;;;;11.43;4.50;;;;;;;3.10;85.72;101166.19;6126228;23;20006;-96
2022/12/03 07:59:43;;;;;;;10.52;4.30;;;;;;;3.08;86.81;101167.09;6101917;23;20559;-95
2022/12/03 08:02:09;;;;;;;7.20;3.92;;;;;;;3.15;87.71;101181.44;6126682;23;20016;-96
2022/12/03 08:04:34;;;;;;;9.13;5.10;;;;;;;3.02;87.22;101152.69;6102757;23;20013;-95
2022/12/03 08:07:00;;;;;;;9.48;4.95;;;;;;;3.19;87.60;101172.84;6102823;23;20003;-95
2022/12/03 08:09:26;;;;;;;15.15;4.97;;;;;;;3.09;88.23;101173.84;6125708;23;20006;-95
2022/12/03 08:11:51;;;;;;;14.23;4.72;;;;;;;3.10;85.65;101145.78;6126553;23;20014;-96
2022/12/03 08:14:18;;;;;;;11.35;4.30;;;;;;;3.15;86.32;101149.09;6125651;23;20014;-96
2022/12/03 08:16:46;;;;;;;12.13;4.93;;;;;;;3.10;86.74;101162.81;6102833;23;20006;-96
2022/12/03 08:19:14;;;;;;;11.27;5.07;;;;;;;3.22;88.43;101149.88;6102540;23;20010;-96
2022/12/03 08:21:43;;;;;;;13.15;4.53;;;;;;;3.25;87.87;101142.16;6102622;23;20078;-95
2022/12/03 08:24:15;;;;;;;13.05;4.72;;;;;;;3.36;87.68;101163.22;6102357;23;20010;-96
2022/12/03 08:26:43;;;;;;;11.27;4.25;;;;;;;3.13;87.28;101140.63;6102955;23;20003;-96
2022/12/03 08:29:13;;;;;;;12.00;4.78;;;;;;;3.15;88.51;101138.06;6103408;23;20006;-96
2022/12/03 08:31:39;;;;;;;9.10;4.22;;;;;;;3.19;88.41;101139.69;6102636;23;20003;-96
2022/12/03 08:34:18;;;;;;;8.30;4.38;;;;;;;3.07;86.36;101139.88;6101512;23;20089;-96
2022/12/03 08:36:45;;;;;;;8.00;4.20;;;;;;;3.04;86.70;101120.38;6102274;23;20010;-96
2022/12/03 08:39:36;;;;;;;9.98;4.53;;;;;;;3.49;87.82;101169.00;6103995;23;20011;-96
2022/12/03 08:42:42;;;;;;;8.15;3.63;;;;;;;3.51;87.91;101171.50;6104565;23;20010;-94
2022/12/03 08:45:42;;;;;;;9.00;4.18;;;;;;;3.33;85.12;101137.75;6100726;23;20033;-95
2022/12/03 08:48:49;;;;;;;7.38;4.38;;;;;;;3.55;85.20;101152.72;6094538;23;20007;-94
2022/12/03 10:06:35;;;;;;;7.68;4.20;;;;;;;5.10;78.79;101116.34;6127896;23;20006;-94
2022/12/03 10:09:01;;;;;;;10.07;4.53;;;;;;;5.05;80.83;101083.19;6101205;23;20017;-93
2022/12/03 10:11:29;;;;;;;12.95;4.40;;;;;;;5.24;79.39;101108.31;6101623;23;20013;-93
2022/12/03 10:13:56;;;;;;;10.23;3.97;;;;;;;5.06;78.73;101097.66;6101702;23;20006;-95
2022/12/03 10:16:22;;;;;;;9.25;3.80;;;;;;;5.45;79.52;101135.97;6096600;23;20021;-94
2022/12/03 10:18:51;;;;;;;9.95;3.75;;;;;;;5.07;79.63;101101.06;6073275;23;20002;-94
2022/12/03 10:21:24;;;;;;;10.10;3.17;;;;;;;5.15;80.63;101128.16;6072424;23;20016;-93
2022/12/03 10:24:15;;;;;;;9.75;3.85;;;;;;;5.25;81.75;101123.66;6097790;23;20006;-94
2022/12/03 10:26:41;;;;;;;11.27;4.67;;;;;;;4.98;82.57;101097.03;6071890;23;20017;-94
2022/12/03 10:29:30;;;;;;;10.40;3.47;;;;;;;4.94;83.78;101095.41;6071463;23;20434;-94
2022/12/03 10:32:00;;;;;;;9.38;4.05;;;;;;;5.08;82.25;101111.28;6073939;23;20449;-94
2022/12/03 10:34:33;;;;;;;13.23;5.47;;;;;;;5.06;82.14;101084.88;6072650;23;20011;-93
2022/12/03 10:37:22;;;;;;;9.48;4.20;;;;;;;5.05;83.10;101098.56;6071786;23;20006;-94
2022/12/03 10:39:50;;;;;;;8.02;3.72;;;;;;;5.25;83.34;101110.84;6063092;23;20385;-94
2022/12/03 10:42:17;;;;;;;9.65;3.75;;;;;;;5.11;81.92;101065.13;6073229;23;20006;-95
2022/12/03 10:44:43;;;;;;;10.25;4.18;;;;;;;5.13;81.74;101071.06;6073025;23;20026;-95
2022/12/03 10:47:11;;;;;;;12.65;4.20;;;;;;;5.16;83.78;101054.78;6072320;23;20014;-94
2022/12/03 10:49:37;;;;;;;10.20;3.85;;;;;;;5.19;82.98;101048.75;6071225;23;20308;-94
2022/12/03 10:52:05;;;;;;;8.80;4.30;;;;;;;5.34;83.18;101056.03;6072076;23;19998;-94
2022/12/03 10:54:34;;;;;;;13.10;3.95;;;;;;;5.33;83.52;101072.28;6071736;23;20430;-93
2022/12/03 10:57:01;;;;;;;8.52;4.00;;;;;;;5.37;84.97;101073.88;6073489;23;20004;-94
2022/12/03 10:59:31;;;;;;;10.98;4.32;;;;;;;6.04;83.58;101062.72;6073754;23;20017;-94
2022/12/03 11:01:57;;;;;;;9.63;4.22;;;;;;;6.03;79.31;101033.69;6074137;23;20006;-94
2022/12/03 13:19:13;;;;;;;7.38;2.22;;;;;;;6.13;84.53;100837.75;6104256;23;19917;-95
2022/12/03 13:21:41;;;;;;;12.40;2.83;;;;;;;6.16;85.32;100834.25;5904370;23;20029;-95
2022/12/03 13:24:37;;;;;;;8.07;2.30;;;;;;;6.37;84.60;100859.19;6074058;23;20018;-95
2022/12/03 13:27:57;;;;;;;;;;;;;;;;;;;;;
2022/12/03 13:30:41;;;;;;;;;;;;;;;;;;;;;
2022/12/03 21:24:29;;;;;;;22.30;7.60;;;;;;;2.34;100.00;100692.56;6096083;23;20022;-96
2022/12/03 21:42:25;;;;;;;12.35;6.63;;;;;;;2.22;100.00;100659.69;6128111;23;20014;-96
2022/12/03 21:45:22;;;;;;;14.80;7.45;;;;;;;2.20;100.00;100666.53;6100877;23;20068;-96
2022/12/03 21:48:47;;;;;;;;;;;;;;;;;;;;;
2022/12/03 21:51:30;;;;;;;13.90;7.60;;;;;;;2.24;100.00;100662.19;5963911;24;20040;-95
2022/12/03 21:54:40;;;;;;;17.92;8.02;;;;;;;2.34;100.00;100677.28;6074857;23;20013;-94
2022/12/03 21:57:39;;;;;;;;;;;;;;;;;;;;;
2022/12/03 22:00:24;;;;;;;;;;;;;;;;;;;;;
2022/12/03 22:02:59;;;;;;;20.23;8.15;;;;;;;2.23;100.00;100676.63;6100484;23;20038;-96
2022/12/03 22:06:10;;;;;;;18.67;7.95;;;;;;;1.97;100.00;100644.03;6078082;23;20018;-96
2022/12/03 22:09:13;;;;;;;18.10;7.03;;;;;;;2.10;100.00;100688.78;6078319;23;20007;-96
2022/12/03 22:11:58;;;;;;;19.38;8.65;;;;;;;1.84;100.00;100645.13;6050989;23;20016;-96
2022/12/03 22:14:49;;;;;;;24.83;9.98;;;;;;;1.86;100.00;100656.13;6077474;23;20048;-96
2022/12/03 22:17:29;;;;;;;20.45;8.27;;;;;;;1.86;100.00;100643.41;6076167;23;20011;-96
2022/12/03 22:20:03;;;;;;;17.65;8.20;;;;;;;2.16;100.00;100680.16;6073325;23;20058;-95
2022/12/03 22:23:10;;;;;;;24.02;8.88;;;;;;;2.11;100.00;100682.78;6078527;23;20019;-96
2022/12/03 22:26:30;;;;;;;21.75;8.73;;;;;;;1.98;100.00;100645.72;6018565;23;20003;-95
2022/12/03 22:29:14;;;;;;;20.00;8.77;;;;;;;2.13;100.00;100650.50;6077805;23;20013;-96
2022/12/03 22:31:50;;;;;;;19.88;7.97;;;;;;;2.20;100.00;100683.50;6077538;23;20002;-96
2022/12/03 22:34:29;;;;;;;21.38;9.10;;;;;;;2.02;100.00;100641.41;6076651;23;20070;-96
2022/12/03 22:36:57;;;;;;;17.08;7.97;;;;;;;2.23;100.00;100665.63;6076976;23;20390;-96
2022/12/03 22:39:24;;;;;;;16.60;8.73;;;;;;;2.33;100.00;100667.94;6077519;23;20017;-96
2022/12/03 22:42:32;;;;;;;15.10;8.13;;;;;;;2.12;100.00;100640.34;6082870;23;20038;-96
2022/12/03 22:48:23;;;;;;;16.13;8.80;;;;;;;2.33;100.00;100657.75;6072821;23;20086;-95
2022/12/03 22:51:03;;;;;;;19.80;9.13;;;;;;;2.22;100.00;100633.38;6094946;23;20093;-95
2022/12/03 22:53:39;;;;;;;21.52;8.77;;;;;;;2.20;100.00;100647.88;6100845;23;20043;-96
2022/12/03 22:56:16;;;;;;;18.95;9.18;;;;;;;2.27;100.00;100646.88;6099794;23;20007;-96
2022/12/03 22:58:58;;;;;;;21.15;9.18;;;;;;;2.19;100.00;100639.34;6104245;23;20508;-95
2022/12/03 23:01:56;;;;;;;;;;;;;;;;;;;;;
2022/12/03 23:04:37;;;;;;;20.35;9.65;;;;;;;2.00;100.00;100618.53;6100900;23;19939;-96
2022/12/03 23:07:16;;;;;;;23.80;9.00;;;;;;;2.18;100.00;100622.41;6101642;23;20013;-95
2022/12/03 23:09:55;;;;;;;22.05;9.75;;;;;;;2.23;100.00;100629.97;6102068;23;20006;-96
2022/12/03 23:12:24;;;;;;;24.45;9.75;;;;;;;2.07;100.00;100617.53;6100219;23;20010;-96
2022/12/03 23:15:10;;;;;;;13.57;8.30;;;;;;;2.17;100.00;100619.88;6101437;23;20009;-96
2022/12/03 23:17:50;;;;;;;20.48;9.13;;;;;;;2.13;100.00;100621.66;6102470;23;20142;-96
2022/12/03 23:20:24;;;;;;;22.23;9.63;;;;;;;2.14;100.00;100631.81;6100499;23;20007;-95
2022/12/03 23:23:21;;;;;;;22.23;9.07;;;;;;;2.18;100.00;100621.59;6101287;23;20010;-95
2022/12/03 23:26:45;;;;;;;23.23;9.80;;;;;;;2.28;100.00;100617.97;6102642;23;20002;-96
2022/12/03 23:32:42;;;;;;;;;;;;;;;;;;;;;
2022/12/03 23:35:22;;;;;;;22.23;9.98;;;;;;;2.27;100.00;100623.94;6104963;23;20022;-96
2022/12/03 23:38:11;;;;;;;20.08;9.85;;;;;;;2.26;100.00;100610.34;6103310;23;20006;-96
2022/12/03 23:40:45;;;;;;;21.52;8.65;;;;;;;2.33;100.00;100611.06;6102196;23;20011;-96
2022/12/03 23:43:23;;;;;;;28.88;8.77;;;;;;;2.34;100.00;100633.13;6101209;23;20013;-96
2022/12/03 23:46:06;;;;;;;23.58;9.55;;;;;;;2.31;100.00;100605.16;6102149;23;20003;-96
2022/12/03 23:48:43;;;;;;;17.13;8.75;;;;;;;2.20;100.00;100589.28;6103286;23;20003;-96
2022/12/03 23:51:18;;;;;;;14.07;7.90;;;;;;;2.39;100.00;100620.28;6102794;23;20017;-96
2022/12/03 23:53:51;;;;;;;18.13;8.93;;;;;;;2.40;100.00;100612.63;6102176;23;19998;-96
2022/12/03 23:56:49;;;;;;;16.75;8.90;;;;;;;2.22;100.00;100590.94;6101477;23;20010;-96
2022/12/03 23:59:48;;;;;;;;;;;;;;;;;;;;;
